sensor_id;sensor_type;location;lat;lon;timestamp;temperature;humidity
62575;DHT22;70119;45.638;11.714;2023-06-10T00:02:09;29.60;48.20
62575;DHT22;70119;45.638;11.714;2023-06-10T00:04:35;29.60;48.30
62575;DHT22;70119;45.638;11.714;2023-06-10T00:07:05;29.60;48.40
62575;DHT22;70119;45.638;11.714;2023-06-10T00:09:38;29.60;48.40
62575;DHT22;70119;45.638;11.714;2023-06-10T00:12:08;29.70;48.20
62575;DHT22;70119;45.638;11.714;2023-06-10T00:14:37;29.70;48.30
62575;DHT22;70119;45.638;11.714;2023-06-10T00:17:04;29.70;48.20
62575;DHT22;70119;45.638;11.714;2023-06-10T00:19:30;29.70;48.20
62575;DHT22;70119;45.638;11.714;2023-06-10T00:21:57;29.70;48.10
62575;DHT22;70119;45.638;11.714;2023-06-10T00:24:23;29.70;48.00
62575;DHT22;70119;45.638;11.714;2023-06-10T00:26:49;29.80;48.00
62575;DHT22;70119;45.638;11.714;2023-06-10T00:29:15;29.80;47.80
62575;DHT22;70119;45.638;11.714;2023-06-10T00:31:41;29.80;47.90
62575;DHT22;70119;45.638;11.714;2023-06-10T00:34:08;29.80;47.90
62575;DHT22;70119;45.638;11.714;2023-06-10T00:36:34;29.80;47.90
62575;DHT22;70119;45.638;11.714;2023-06-10T00:39:01;29.80;47.90
62575;DHT22;70119;45.638;11.714;2023-06-10T00:41:28;29.80;47.90
62575;DHT22;70119;45.638;11.714;2023-06-10T00:43:54;29.80;48.00
62575;DHT22;70119;45.638;11.714;2023-06-10T00:46:21;29.80;47.90
62575;DHT22;70119;45.638;11.714;2023-06-10T00:48:47;29.80;48.10
62575;DHT22;70119;45.638;11.714;2023-06-10T00:51:13;29.80;48.10
62575;DHT22;70119;45.638;11.714;2023-06-10T00:53:40;29.80;47.90
62575;DHT22;70119;45.638;11.714;2023-06-10T00:56:07;29.80;47.80
62575;DHT22;70119;45.638;11.714;2023-06-10T00:58:33;29.80;47.80
62575;DHT22;70119;45.638;11.714;2023-06-10T01:00:59;29.80;47.80
62575;DHT22;70119;45.638;11.714;2023-06-10T01:03:26;29.80;47.80
62575;DHT22;70119;45.638;11.714;2023-06-10T01:06:06;29.80;47.80
62575;DHT22;70119;45.638;11.714;2023-06-10T01:11:19;29.80;47.80
62575;DHT22;70119;45.638;11.714;2023-06-10T01:13:48;29.80;47.80
62575;DHT22;70119;45.638;11.714;2023-06-10T01:16:21;29.90;47.80
62575;DHT22;70119;45.638;11.714;2023-06-10T01:18:47;29.80;47.60
62575;DHT22;70119;45.638;11.714;2023-06-10T01:21:21;29.90;47.60
62575;DHT22;70119;45.638;11.714;2023-06-10T01:23:51;29.80;47.70
62575;DHT22;70119;45.638;11.714;2023-06-10T01:26:19;29.80;47.70
62575;DHT22;70119;45.638;11.714;2023-06-10T01:29:01;29.90;47.60
62575;DHT22;70119;45.638;11.714;2023-06-10T01:31:48;29.90;47.40
62575;DHT22;70119;45.638;11.714;2023-06-10T01:34:17;29.90;47.50
62575;DHT22;70119;45.638;11.714;2023-06-10T01:36:48;29.90;47.50
62575;DHT22;70119;45.638;11.714;2023-06-10T01:39:17;29.90;47.60
62575;DHT22;70119;45.638;11.714;2023-06-10T01:41:44;30.00;47.40
62575;DHT22;70119;45.638;11.714;2023-06-10T01:44:10;29.90;47.10
62575;DHT22;70119;45.638;11.714;2023-06-10T01:46:36;30.00;47.20
62575;DHT22;70119;45.638;11.714;2023-06-10T01:49:03;29.90;47.20
62575;DHT22;70119;45.638;11.714;2023-06-10T01:51:28;29.90;47.30
62575;DHT22;70119;45.638;11.714;2023-06-10T01:53:57;29.90;47.20
62575;DHT22;70119;45.638;11.714;2023-06-10T01:56:23;29.90;47.30
62575;DHT22;70119;45.638;11.714;2023-06-10T01:58:49;29.90;47.10
62575;DHT22;70119;45.638;11.714;2023-06-10T02:01:15;29.90;47.00
62575;DHT22;70119;45.638;11.714;2023-06-10T02:03:44;29.90;47.00
62575;DHT22;70119;45.638;11.714;2023-06-10T02:06:10;29.90;46.90
62575;DHT22;70119;45.638;11.714;2023-06-10T02:08:36;29.90;47.00
62575;DHT22;70119;45.638;11.714;2023-06-10T02:11:02;29.90;46.90
62575;DHT22;70119;45.638;11.714;2023-06-10T02:13:28;29.90;46.90
62575;DHT22;70119;45.638;11.714;2023-06-10T02:15:54;29.80;46.80
62575;DHT22;70119;45.638;11.714;2023-06-10T02:18:20;29.90;46.80
62575;DHT22;70119;45.638;11.714;2023-06-10T02:20:46;29.80;46.70
62575;DHT22;70119;45.638;11.714;2023-06-10T02:23:12;29.80;46.80
62575;DHT22;70119;45.638;11.714;2023-06-10T02:25:38;29.80;46.80
62575;DHT22;70119;45.638;11.714;2023-06-10T02:28:04;29.80;46.80
62575;DHT22;70119;45.638;11.714;2023-06-10T02:30:30;29.90;46.70
62575;DHT22;70119;45.638;11.714;2023-06-10T02:32:56;29.80;46.70
62575;DHT22;70119;45.638;11.714;2023-06-10T02:35:22;29.80;46.70
62575;DHT22;70119;45.638;11.714;2023-06-10T02:37:49;29.80;46.60
62575;DHT22;70119;45.638;11.714;2023-06-10T02:40:16;29.90;46.70
62575;DHT22;70119;45.638;11.714;2023-06-10T02:42:42;29.80;46.70
62575;DHT22;70119;45.638;11.714;2023-06-10T02:45:08;29.80;46.60
62575;DHT22;70119;45.638;11.714;2023-06-10T02:47:34;29.80;46.70
62575;DHT22;70119;45.638;11.714;2023-06-10T02:50:00;29.80;46.70
62575;DHT22;70119;45.638;11.714;2023-06-10T02:52:26;29.80;46.60
62575;DHT22;70119;45.638;11.714;2023-06-10T02:54:52;29.80;46.70
62575;DHT22;70119;45.638;11.714;2023-06-10T02:57:18;29.80;46.70
62575;DHT22;70119;45.638;11.714;2023-06-10T02:59:44;29.80;46.70
62575;DHT22;70119;45.638;11.714;2023-06-10T03:02:10;29.80;46.70
62575;DHT22;70119;45.638;11.714;2023-06-10T03:04:38;29.80;46.70
62575;DHT22;70119;45.638;11.714;2023-06-10T03:07:04;29.80;46.80
62575;DHT22;70119;45.638;11.714;2023-06-10T03:09:33;29.80;46.80
62575;DHT22;70119;45.638;11.714;2023-06-10T03:11:58;29.80;46.80
62575;DHT22;70119;45.638;11.714;2023-06-10T03:14:26;29.80;46.80
62575;DHT22;70119;45.638;11.714;2023-06-10T03:16:52;29.80;46.80
62575;DHT22;70119;45.638;11.714;2023-06-10T03:19:18;29.80;46.80
62575;DHT22;70119;45.638;11.714;2023-06-10T03:21:44;29.70;46.80
62575;DHT22;70119;45.638;11.714;2023-06-10T03:24:10;29.80;46.80
62575;DHT22;70119;45.638;11.714;2023-06-10T03:26:37;29.80;46.80
62575;DHT22;70119;45.638;11.714;2023-06-10T03:29:03;29.80;46.80
62575;DHT22;70119;45.638;11.714;2023-06-10T03:31:29;29.70;46.90
62575;DHT22;70119;45.638;11.714;2023-06-10T03:33:55;29.70;46.90
62575;DHT22;70119;45.638;11.714;2023-06-10T03:36:21;29.70;47.00
62575;DHT22;70119;45.638;11.714;2023-06-10T03:38:47;29.70;46.90
62575;DHT22;70119;45.638;11.714;2023-06-10T03:41:13;29.70;46.90
62575;DHT22;70119;45.638;11.714;2023-06-10T03:43:40;29.70;46.90
62575;DHT22;70119;45.638;11.714;2023-06-10T03:46:06;29.70;46.90
62575;DHT22;70119;45.638;11.714;2023-06-10T03:48:32;29.80;47.00
62575;DHT22;70119;45.638;11.714;2023-06-10T03:50:58;29.70;47.00
62575;DHT22;70119;45.638;11.714;2023-06-10T03:53:25;29.80;47.00
62575;DHT22;70119;45.638;11.714;2023-06-10T03:55:50;29.70;47.00
62575;DHT22;70119;45.638;11.714;2023-06-10T03:58:16;29.70;47.00
62575;DHT22;70119;45.638;11.714;2023-06-10T04:00:43;29.70;47.00
62575;DHT22;70119;45.638;11.714;2023-06-10T04:03:11;29.70;47.00
62575;DHT22;70119;45.638;11.714;2023-06-10T04:05:40;29.70;47.00
62575;DHT22;70119;45.638;11.714;2023-06-10T04:08:09;29.70;47.00
62575;DHT22;70119;45.638;11.714;2023-06-10T04:10:35;29.70;47.00
62575;DHT22;70119;45.638;11.714;2023-06-10T04:13:02;29.70;47.00
62575;DHT22;70119;45.638;11.714;2023-06-10T04:15:29;29.70;47.00
62575;DHT22;70119;45.638;11.714;2023-06-10T04:17:55;29.60;47.00
62575;DHT22;70119;45.638;11.714;2023-06-10T04:20:21;29.60;47.00
62575;DHT22;70119;45.638;11.714;2023-06-10T04:22:47;29.70;47.00
62575;DHT22;70119;45.638;11.714;2023-06-10T04:25:13;29.60;47.00
62575;DHT22;70119;45.638;11.714;2023-06-10T04:27:39;29.60;47.00
62575;DHT22;70119;45.638;11.714;2023-06-10T04:30:06;29.70;47.00
62575;DHT22;70119;45.638;11.714;2023-06-10T04:32:32;29.70;47.00
62575;DHT22;70119;45.638;11.714;2023-06-10T04:34:59;29.60;47.00
62575;DHT22;70119;45.638;11.714;2023-06-10T04:37:25;29.70;46.90
62575;DHT22;70119;45.638;11.714;2023-06-10T04:39:51;29.70;46.90
62575;DHT22;70119;45.638;11.714;2023-06-10T04:42:17;29.70;47.00
62575;DHT22;70119;45.638;11.714;2023-06-10T04:44:43;29.70;47.00
62575;DHT22;70119;45.638;11.714;2023-06-10T04:47:09;29.60;47.00
62575;DHT22;70119;45.638;11.714;2023-06-10T04:49:35;29.60;47.00
62575;DHT22;70119;45.638;11.714;2023-06-10T04:52:02;29.60;47.00
62575;DHT22;70119;45.638;11.714;2023-06-10T04:54:29;29.60;47.00
62575;DHT22;70119;45.638;11.714;2023-06-10T04:56:55;29.60;47.00
62575;DHT22;70119;45.638;11.714;2023-06-10T04:59:21;29.60;47.00
62575;DHT22;70119;45.638;11.714;2023-06-10T05:01:47;29.60;47.00
62575;DHT22;70119;45.638;11.714;2023-06-10T05:04:13;29.60;47.00
62575;DHT22;70119;45.638;11.714;2023-06-10T05:06:39;29.60;47.10
62575;DHT22;70119;45.638;11.714;2023-06-10T05:09:05;29.60;47.10
62575;DHT22;70119;45.638;11.714;2023-06-10T05:11:31;29.60;47.00
62575;DHT22;70119;45.638;11.714;2023-06-10T05:13:57;29.60;47.10
62575;DHT22;70119;45.638;11.714;2023-06-10T05:16:23;29.60;47.00
62575;DHT22;70119;45.638;11.714;2023-06-10T05:18:49;29.60;47.00
62575;DHT22;70119;45.638;11.714;2023-06-10T05:21:16;29.70;47.00
62575;DHT22;70119;45.638;11.714;2023-06-10T05:23:42;29.70;47.00
62575;DHT22;70119;45.638;11.714;2023-06-10T05:26:08;29.60;47.00
62575;DHT22;70119;45.638;11.714;2023-06-10T05:28:34;29.60;47.00
62575;DHT22;70119;45.638;11.714;2023-06-10T05:31:00;29.70;47.00
62575;DHT22;70119;45.638;11.714;2023-06-10T05:33:26;29.60;47.00
62575;DHT22;70119;45.638;11.714;2023-06-10T05:35:52;29.60;47.00
62575;DHT22;70119;45.638;11.714;2023-06-10T05:38:18;29.70;47.30
62575;DHT22;70119;45.638;11.714;2023-06-10T05:40:46;29.70;47.20
62575;DHT22;70119;45.638;11.714;2023-06-10T05:43:12;29.60;47.50
62575;DHT22;70119;45.638;11.714;2023-06-10T05:45:38;29.60;47.80
62575;DHT22;70119;45.638;11.714;2023-06-10T05:48:06;29.60;47.80
62575;DHT22;70119;45.638;11.714;2023-06-10T05:50:32;29.60;47.70
62575;DHT22;70119;45.638;11.714;2023-06-10T05:53:04;29.60;47.80
62575;DHT22;70119;45.638;11.714;2023-06-10T05:55:30;29.60;47.90
62575;DHT22;70119;45.638;11.714;2023-06-10T05:57:59;29.60;47.80
62575;DHT22;70119;45.638;11.714;2023-06-10T06:00:26;29.60;47.80
62575;DHT22;70119;45.638;11.714;2023-06-10T06:02:53;29.60;47.70
62575;DHT22;70119;45.638;11.714;2023-06-10T06:05:19;29.60;47.70
62575;DHT22;70119;45.638;11.714;2023-06-10T06:07:45;29.60;48.20
62575;DHT22;70119;45.638;11.714;2023-06-10T06:10:11;29.60;48.20
62575;DHT22;70119;45.638;11.714;2023-06-10T06:12:37;29.50;48.30
62575;DHT22;70119;45.638;11.714;2023-06-10T06:15:03;29.50;48.40
62575;DHT22;70119;45.638;11.714;2023-06-10T06:17:29;29.50;48.50
62575;DHT22;70119;45.638;11.714;2023-06-10T06:19:55;29.50;48.50
62575;DHT22;70119;45.638;11.714;2023-06-10T06:22:21;29.50;48.50
62575;DHT22;70119;45.638;11.714;2023-06-10T06:24:47;29.50;48.60
62575;DHT22;70119;45.638;11.714;2023-06-10T06:27:15;29.50;48.60
62575;DHT22;70119;45.638;11.714;2023-06-10T06:29:41;29.50;48.50
62575;DHT22;70119;45.638;11.714;2023-06-10T06:32:07;29.60;48.50
62575;DHT22;70119;45.638;11.714;2023-06-10T06:34:33;29.50;48.60
62575;DHT22;70119;45.638;11.714;2023-06-10T06:36:59;29.50;48.60
62575;DHT22;70119;45.638;11.714;2023-06-10T06:39:25;29.50;48.40
62575;DHT22;70119;45.638;11.714;2023-06-10T06:41:51;29.60;48.00
62575;DHT22;70119;45.638;11.714;2023-06-10T06:44:17;29.50;47.90
62575;DHT22;70119;45.638;11.714;2023-06-10T06:46:43;29.50;48.10
62575;DHT22;70119;45.638;11.714;2023-06-10T06:49:09;29.50;47.90
62575;DHT22;70119;45.638;11.714;2023-06-10T06:51:35;29.50;47.70
62575;DHT22;70119;45.638;11.714;2023-06-10T06:54:01;29.50;47.60
62575;DHT22;70119;45.638;11.714;2023-06-10T06:56:27;29.50;47.60
62575;DHT22;70119;45.638;11.714;2023-06-10T06:58:53;29.50;47.70
62575;DHT22;70119;45.638;11.714;2023-06-10T07:01:19;29.50;47.80
62575;DHT22;70119;45.638;11.714;2023-06-10T07:03:46;29.50;47.90
62575;DHT22;70119;45.638;11.714;2023-06-10T07:06:13;29.60;47.80
62575;DHT22;70119;45.638;11.714;2023-06-10T07:08:39;29.60;47.70
62575;DHT22;70119;45.638;11.714;2023-06-10T07:11:05;29.60;47.70
62575;DHT22;70119;45.638;11.714;2023-06-10T07:13:31;29.60;47.70
62575;DHT22;70119;45.638;11.714;2023-06-10T07:15:57;29.50;47.70
62575;DHT22;70119;45.638;11.714;2023-06-10T07:18:23;29.60;47.70
62575;DHT22;70119;45.638;11.714;2023-06-10T07:20:49;29.60;47.70
62575;DHT22;70119;45.638;11.714;2023-06-10T07:23:15;29.60;47.80
62575;DHT22;70119;45.638;11.714;2023-06-10T07:25:41;29.60;47.90
62575;DHT22;70119;45.638;11.714;2023-06-10T07:28:07;29.60;48.10
62575;DHT22;70119;45.638;11.714;2023-06-10T07:30:33;29.60;48.00
62575;DHT22;70119;45.638;11.714;2023-06-10T07:32:59;29.60;48.00
62575;DHT22;70119;45.638;11.714;2023-06-10T07:35:26;29.60;48.00
62575;DHT22;70119;45.638;11.714;2023-06-10T07:37:52;29.60;48.10
62575;DHT22;70119;45.638;11.714;2023-06-10T07:40:19;29.60;48.10
62575;DHT22;70119;45.638;11.714;2023-06-10T07:42:45;29.60;47.90
62575;DHT22;70119;45.638;11.714;2023-06-10T07:45:11;29.60;47.90
62575;DHT22;70119;45.638;11.714;2023-06-10T07:47:36;29.60;48.00
62575;DHT22;70119;45.638;11.714;2023-06-10T07:50:02;29.60;47.90
62575;DHT22;70119;45.638;11.714;2023-06-10T07:52:28;29.60;47.90
62575;DHT22;70119;45.638;11.714;2023-06-10T07:54:54;29.60;48.00
62575;DHT22;70119;45.638;11.714;2023-06-10T07:57:20;29.60;48.00
62575;DHT22;70119;45.638;11.714;2023-06-10T07:59:46;29.60;48.00
62575;DHT22;70119;45.638;11.714;2023-06-10T08:02:12;29.60;48.00
62575;DHT22;70119;45.638;11.714;2023-06-10T08:04:37;29.60;48.10
62575;DHT22;70119;45.638;11.714;2023-06-10T08:07:03;29.60;48.00
62575;DHT22;70119;45.638;11.714;2023-06-10T08:09:29;29.60;48.00
62575;DHT22;70119;45.638;11.714;2023-06-10T08:11:55;29.70;48.00
62575;DHT22;70119;45.638;11.714;2023-06-10T08:14:21;29.70;48.00
62575;DHT22;70119;45.638;11.714;2023-06-10T08:16:47;29.70;48.00
62575;DHT22;70119;45.638;11.714;2023-06-10T08:19:13;29.70;48.00
62575;DHT22;70119;45.638;11.714;2023-06-10T08:21:39;29.70;47.90
62575;DHT22;70119;45.638;11.714;2023-06-10T08:24:06;29.80;47.90
62575;DHT22;70119;45.638;11.714;2023-06-10T08:26:32;29.80;47.90
62575;DHT22;70119;45.638;11.714;2023-06-10T08:28:58;29.70;48.00
62575;DHT22;70119;45.638;11.714;2023-06-10T08:31:24;29.70;48.00
62575;DHT22;70119;45.638;11.714;2023-06-10T08:33:50;29.70;48.00
62575;DHT22;70119;45.638;11.714;2023-06-10T08:36:15;29.60;48.10
62575;DHT22;70119;45.638;11.714;2023-06-10T08:38:41;29.70;48.10
62575;DHT22;70119;45.638;11.714;2023-06-10T08:41:09;29.70;48.10
62575;DHT22;70119;45.638;11.714;2023-06-10T08:43:45;29.70;48.10
62575;DHT22;70119;45.638;11.714;2023-06-10T08:46:14;29.70;48.00
62575;DHT22;70119;45.638;11.714;2023-06-10T08:48:44;29.80;47.90
62575;DHT22;70119;45.638;11.714;2023-06-10T08:51:11;29.70;48.00
62575;DHT22;70119;45.638;11.714;2023-06-10T08:53:41;29.80;47.90
62575;DHT22;70119;45.638;11.714;2023-06-10T08:56:10;29.70;48.20
62575;DHT22;70119;45.638;11.714;2023-06-10T08:58:37;29.70;48.30
62575;DHT22;70119;45.638;11.714;2023-06-10T09:01:08;29.70;48.20
62575;DHT22;70119;45.638;11.714;2023-06-10T09:03:37;29.70;48.20
62575;DHT22;70119;45.638;11.714;2023-06-10T09:06:05;29.70;48.10
62575;DHT22;70119;45.638;11.714;2023-06-10T09:08:33;29.70;48.10
62575;DHT22;70119;45.638;11.714;2023-06-10T09:11:00;29.70;48.10
62575;DHT22;70119;45.638;11.714;2023-06-10T09:13:26;29.70;48.10
62575;DHT22;70119;45.638;11.714;2023-06-10T09:15:52;29.70;48.00
62575;DHT22;70119;45.638;11.714;2023-06-10T09:18:19;29.70;48.00
62575;DHT22;70119;45.638;11.714;2023-06-10T09:20:45;29.70;48.00
62575;DHT22;70119;45.638;11.714;2023-06-10T09:23:12;29.70;48.10
62575;DHT22;70119;45.638;11.714;2023-06-10T09:25:39;29.70;48.00
62575;DHT22;70119;45.638;11.714;2023-06-10T09:28:08;29.70;48.10
62575;DHT22;70119;45.638;11.714;2023-06-10T09:30:38;29.70;48.10
62575;DHT22;70119;45.638;11.714;2023-06-10T09:33:11;29.70;48.00
62575;DHT22;70119;45.638;11.714;2023-06-10T09:35:48;29.70;48.10
62575;DHT22;70119;45.638;11.714;2023-06-10T09:38:19;29.70;48.10
62575;DHT22;70119;45.638;11.714;2023-06-10T09:40:51;29.70;48.10
62575;DHT22;70119;45.638;11.714;2023-06-10T09:43:17;29.70;48.10
62575;DHT22;70119;45.638;11.714;2023-06-10T09:45:43;29.70;48.10
62575;DHT22;70119;45.638;11.714;2023-06-10T09:48:10;29.80;48.10
62575;DHT22;70119;45.638;11.714;2023-06-10T09:50:43;29.70;48.50
62575;DHT22;70119;45.638;11.714;2023-06-10T09:53:12;29.70;48.70
62575;DHT22;70119;45.638;11.714;2023-06-10T09:55:39;29.70;48.80
62575;DHT22;70119;45.638;11.714;2023-06-10T09:58:06;29.70;48.90
62575;DHT22;70119;45.638;11.714;2023-06-10T10:00:33;29.70;49.00
62575;DHT22;70119;45.638;11.714;2023-06-10T10:03:00;29.70;49.10
62575;DHT22;70119;45.638;11.714;2023-06-10T10:05:27;29.70;49.20
62575;DHT22;70119;45.638;11.714;2023-06-10T10:07:53;29.70;49.30
62575;DHT22;70119;45.638;11.714;2023-06-10T10:10:22;29.60;49.10
62575;DHT22;70119;45.638;11.714;2023-06-10T10:12:51;29.70;49.00
62575;DHT22;70119;45.638;11.714;2023-06-10T10:15:19;29.60;48.80
62575;DHT22;70119;45.638;11.714;2023-06-10T10:17:53;29.70;48.70
62575;DHT22;70119;45.638;11.714;2023-06-10T10:20:26;29.60;48.70
62575;DHT22;70119;45.638;11.714;2023-06-10T10:22:52;29.60;48.60
62575;DHT22;70119;45.638;11.714;2023-06-10T10:25:28;29.60;48.70
62575;DHT22;70119;45.638;11.714;2023-06-10T10:28:02;29.70;48.60
62575;DHT22;70119;45.638;11.714;2023-06-10T10:30:42;29.70;48.60
62575;DHT22;70119;45.638;11.714;2023-06-10T10:33:20;29.60;48.60
62575;DHT22;70119;45.638;11.714;2023-06-10T10:35:49;29.70;48.60
62575;DHT22;70119;45.638;11.714;2023-06-10T10:38:16;29.60;48.50
62575;DHT22;70119;45.638;11.714;2023-06-10T10:40:43;29.70;48.50
62575;DHT22;70119;45.638;11.714;2023-06-10T10:43:10;29.70;48.50
62575;DHT22;70119;45.638;11.714;2023-06-10T10:45:36;29.70;48.40
62575;DHT22;70119;45.638;11.714;2023-06-10T10:48:11;29.70;48.80
62575;DHT22;70119;45.638;11.714;2023-06-10T10:50:38;29.70;49.00
62575;DHT22;70119;45.638;11.714;2023-06-10T10:53:05;29.70;49.40
62575;DHT22;70119;45.638;11.714;2023-06-10T10:55:32;29.70;49.10
62575;DHT22;70119;45.638;11.714;2023-06-10T10:58:02;29.70;49.00
62575;DHT22;70119;45.638;11.714;2023-06-10T11:00:43;29.70;48.80
62575;DHT22;70119;45.638;11.714;2023-06-10T11:03:14;29.70;48.80
62575;DHT22;70119;45.638;11.714;2023-06-10T11:05:41;29.70;48.80
62575;DHT22;70119;45.638;11.714;2023-06-10T11:08:10;29.70;48.80
62575;DHT22;70119;45.638;11.714;2023-06-10T11:10:51;29.70;48.70
62575;DHT22;70119;45.638;11.714;2023-06-10T11:13:22;29.70;48.80
62575;DHT22;70119;45.638;11.714;2023-06-10T11:15:50;29.70;48.70
62575;DHT22;70119;45.638;11.714;2023-06-10T11:18:38;29.70;48.70
62575;DHT22;70119;45.638;11.714;2023-06-10T11:21:05;29.70;48.70
62575;DHT22;70119;45.638;11.714;2023-06-10T11:23:33;29.70;48.70
62575;DHT22;70119;45.638;11.714;2023-06-10T11:34:03;29.70;48.80
62575;DHT22;70119;45.638;11.714;2023-06-10T11:36:31;29.70;49.00
62575;DHT22;70119;45.638;11.714;2023-06-10T11:39:04;29.70;48.90
62575;DHT22;70119;45.638;11.714;2023-06-10T11:41:31;29.70;48.70
62575;DHT22;70119;45.638;11.714;2023-06-10T11:44:07;29.70;48.70
62575;DHT22;70119;45.638;11.714;2023-06-10T11:46:34;29.70;48.70
62575;DHT22;70119;45.638;11.714;2023-06-10T11:49:01;29.70;48.70
62575;DHT22;70119;45.638;11.714;2023-06-10T11:51:38;29.70;48.70
62575;DHT22;70119;45.638;11.714;2023-06-10T11:54:08;29.70;48.70
62575;DHT22;70119;45.638;11.714;2023-06-10T11:56:34;29.70;48.70
62575;DHT22;70119;45.638;11.714;2023-06-10T11:59:03;29.80;48.60
62575;DHT22;70119;45.638;11.714;2023-06-10T12:01:32;29.80;48.70
62575;DHT22;70119;45.638;11.714;2023-06-10T12:09:12;29.70;48.70
62575;DHT22;70119;45.638;11.714;2023-06-10T12:11:39;29.70;48.60
62575;DHT22;70119;45.638;11.714;2023-06-10T12:14:05;29.70;48.90
62575;DHT22;70119;45.638;11.714;2023-06-10T12:16:31;29.80;48.80
62575;DHT22;70119;45.638;11.714;2023-06-10T12:19:05;29.70;48.70
62575;DHT22;70119;45.638;11.714;2023-06-10T12:21:33;29.80;48.70
62575;DHT22;70119;45.638;11.714;2023-06-10T12:24:10;29.80;48.70
62575;DHT22;70119;45.638;11.714;2023-06-10T12:26:41;29.80;48.70
62575;DHT22;70119;45.638;11.714;2023-06-10T12:29:17;29.80;48.70
62575;DHT22;70119;45.638;11.714;2023-06-10T12:32:03;29.80;48.70
62575;DHT22;70119;45.638;11.714;2023-06-10T12:34:33;29.80;48.70
62575;DHT22;70119;45.638;11.714;2023-06-10T12:37:03;29.80;48.60
62575;DHT22;70119;45.638;11.714;2023-06-10T12:39:32;29.80;48.60
62575;DHT22;70119;45.638;11.714;2023-06-10T12:41:58;29.80;48.50
62575;DHT22;70119;45.638;11.714;2023-06-10T12:44:34;29.80;48.60
62575;DHT22;70119;45.638;11.714;2023-06-10T12:47:10;29.80;48.80
62575;DHT22;70119;45.638;11.714;2023-06-10T12:49:38;29.80;48.60
62575;DHT22;70119;45.638;11.714;2023-06-10T12:52:04;29.80;48.70
62575;DHT22;70119;45.638;11.714;2023-06-10T12:54:30;29.80;48.70
62575;DHT22;70119;45.638;11.714;2023-06-10T12:56:56;29.80;48.70
62575;DHT22;70119;45.638;11.714;2023-06-10T12:59:22;29.80;48.70
62575;DHT22;70119;45.638;11.714;2023-06-10T13:01:53;29.80;48.60
62575;DHT22;70119;45.638;11.714;2023-06-10T13:04:19;29.80;48.60
62575;DHT22;70119;45.638;11.714;2023-06-10T13:06:46;29.80;48.60
62575;DHT22;70119;45.638;11.714;2023-06-10T13:09:13;29.80;48.60
62575;DHT22;70119;45.638;11.714;2023-06-10T13:11:39;29.80;48.60
62575;DHT22;70119;45.638;11.714;2023-06-10T13:14:06;29.80;48.60
62575;DHT22;70119;45.638;11.714;2023-06-10T13:16:32;29.80;48.50
62575;DHT22;70119;45.638;11.714;2023-06-10T13:18:59;29.80;48.50
62575;DHT22;70119;45.638;11.714;2023-06-10T13:21:25;29.80;48.60
62575;DHT22;70119;45.638;11.714;2023-06-10T13:23:51;29.80;48.50
62575;DHT22;70119;45.638;11.714;2023-06-10T13:26:17;29.80;48.50
62575;DHT22;70119;45.638;11.714;2023-06-10T13:28:44;29.80;48.50
62575;DHT22;70119;45.638;11.714;2023-06-10T13:31:10;29.80;48.50
62575;DHT22;70119;45.638;11.714;2023-06-10T13:33:36;29.80;48.60
62575;DHT22;70119;45.638;11.714;2023-06-10T13:36:02;29.80;48.50
62575;DHT22;70119;45.638;11.714;2023-06-10T13:38:28;29.80;48.50
62575;DHT22;70119;45.638;11.714;2023-06-10T13:40:54;29.80;48.50
62575;DHT22;70119;45.638;11.714;2023-06-10T13:43:20;29.90;48.50
62575;DHT22;70119;45.638;11.714;2023-06-10T13:45:46;29.80;48.50
62575;DHT22;70119;45.638;11.714;2023-06-10T13:48:11;29.90;48.50
62575;DHT22;70119;45.638;11.714;2023-06-10T13:50:38;29.90;48.50
62575;DHT22;70119;45.638;11.714;2023-06-10T13:53:04;29.80;48.40
62575;DHT22;70119;45.638;11.714;2023-06-10T13:55:30;29.80;48.40
62575;DHT22;70119;45.638;11.714;2023-06-10T13:57:56;29.80;48.40
62575;DHT22;70119;45.638;11.714;2023-06-10T14:00:22;29.80;48.50
62575;DHT22;70119;45.638;11.714;2023-06-10T14:02:48;29.90;48.40
62575;DHT22;70119;45.638;11.714;2023-06-10T14:05:13;29.90;48.30
62575;DHT22;70119;45.638;11.714;2023-06-10T14:07:39;29.90;48.30
62575;DHT22;70119;45.638;11.714;2023-06-10T14:10:06;29.90;48.30
62575;DHT22;70119;45.638;11.714;2023-06-10T14:12:34;29.90;48.40
62575;DHT22;70119;45.638;11.714;2023-06-10T14:15:01;29.90;48.40
62575;DHT22;70119;45.638;11.714;2023-06-10T14:17:27;29.90;48.30
62575;DHT22;70119;45.638;11.714;2023-06-10T14:19:53;29.90;48.30
62575;DHT22;70119;45.638;11.714;2023-06-10T14:22:18;29.90;48.30
62575;DHT22;70119;45.638;11.714;2023-06-10T14:24:44;29.90;48.30
62575;DHT22;70119;45.638;11.714;2023-06-10T14:27:10;29.90;48.30
62575;DHT22;70119;45.638;11.714;2023-06-10T14:29:36;29.90;48.30
62575;DHT22;70119;45.638;11.714;2023-06-10T14:32:02;29.90;48.30
62575;DHT22;70119;45.638;11.714;2023-06-10T14:34:28;29.90;48.20
62575;DHT22;70119;45.638;11.714;2023-06-10T14:36:55;29.90;48.30
62575;DHT22;70119;45.638;11.714;2023-06-10T14:39:21;29.90;48.30
62575;DHT22;70119;45.638;11.714;2023-06-10T14:41:47;29.90;48.30
62575;DHT22;70119;45.638;11.714;2023-06-10T14:44:13;29.90;48.30
62575;DHT22;70119;45.638;11.714;2023-06-10T14:46:39;29.90;48.30
62575;DHT22;70119;45.638;11.714;2023-06-10T14:49:05;29.90;48.30
62575;DHT22;70119;45.638;11.714;2023-06-10T14:51:31;30.00;48.30
62575;DHT22;70119;45.638;11.714;2023-06-10T14:53:57;29.90;48.30
62575;DHT22;70119;45.638;11.714;2023-06-10T14:56:24;29.90;48.20
62575;DHT22;70119;45.638;11.714;2023-06-10T14:58:51;29.90;48.20
62575;DHT22;70119;45.638;11.714;2023-06-10T15:01:17;30.00;48.20
62575;DHT22;70119;45.638;11.714;2023-06-10T15:03:44;29.90;48.20
62575;DHT22;70119;45.638;11.714;2023-06-10T15:06:10;29.90;48.10
62575;DHT22;70119;45.638;11.714;2023-06-10T15:08:36;30.00;48.10
62575;DHT22;70119;45.638;11.714;2023-06-10T15:11:03;30.00;48.20
62575;DHT22;70119;45.638;11.714;2023-06-10T15:13:29;30.00;48.10
62575;DHT22;70119;45.638;11.714;2023-06-10T15:15:54;29.90;48.10
62575;DHT22;70119;45.638;11.714;2023-06-10T15:18:21;30.00;48.00
62575;DHT22;70119;45.638;11.714;2023-06-10T15:20:47;30.00;48.00
62575;DHT22;70119;45.638;11.714;2023-06-10T15:23:13;30.00;47.90
62575;DHT22;70119;45.638;11.714;2023-06-10T15:25:39;30.00;47.90
62575;DHT22;70119;45.638;11.714;2023-06-10T15:28:06;30.00;48.00
62575;DHT22;70119;45.638;11.714;2023-06-10T15:30:32;30.00;48.30
62575;DHT22;70119;45.638;11.714;2023-06-10T15:32:58;30.00;48.30